sensor_id;sensor_type;location;lat;lon;timestamp;P1;durP1;ratioP1;P2;durP2;ratioP2
44328;SDS011;30039;51.462;6.892;2023-07-16T00:01:52;5.75;;;1.77;;
44328;SDS011;30039;51.462;6.892;2023-07-16T00:04:38;2.75;;;1.50;;
44328;SDS011;30039;51.462;6.892;2023-07-16T00:07:23;2.33;;;1.50;;
44328;SDS011;30039;51.462;6.892;2023-07-16T00:10:09;2.70;;;1.23;;
44328;SDS011;30039;51.462;6.892;2023-07-16T00:12:55;3.33;;;1.52;;
44328;SDS011;30039;51.462;6.892;2023-07-16T00:15:41;2.83;;;1.40;;
44328;SDS011;30039;51.462;6.892;2023-07-16T00:18:27;3.22;;;1.75;;
44328;SDS011;30039;51.462;6.892;2023-07-16T00:21:14;4.90;;;1.60;;
44328;SDS011;30039;51.462;6.892;2023-07-16T00:24:00;3.17;;;1.65;;
44328;SDS011;30039;51.462;6.892;2023-07-16T00:26:45;3.33;;;1.60;;
44328;SDS011;30039;51.462;6.892;2023-07-16T00:29:31;3.75;;;1.77;;
44328;SDS011;30039;51.462;6.892;2023-07-16T00:32:16;4.18;;;2.17;;
44328;SDS011;30039;51.462;6.892;2023-07-16T00:35:02;5.72;;;2.05;;
44328;SDS011;30039;51.462;6.892;2023-07-16T00:37:47;3.80;;;1.90;;
44328;SDS011;30039;51.462;6.892;2023-07-16T00:40:33;4.80;;;1.83;;
44328;SDS011;30039;51.462;6.892;2023-07-16T00:43:18;3.55;;;1.50;;
44328;SDS011;30039;51.462;6.892;2023-07-16T00:46:04;3.88;;;1.70;;
44328;SDS011;30039;51.462;6.892;2023-07-16T00:48:50;4.13;;;1.92;;
44328;SDS011;30039;51.462;6.892;2023-07-16T00:51:35;3.05;;;1.67;;
44328;SDS011;30039;51.462;6.892;2023-07-16T00:54:21;3.47;;;1.70;;
44328;SDS011;30039;51.462;6.892;2023-07-16T00:57:07;3.88;;;1.90;;
44328;SDS011;30039;51.462;6.892;2023-07-16T00:59:53;3.50;;;1.75;;
44328;SDS011;30039;51.462;6.892;2023-07-16T01:02:39;4.00;;;2.03;;
44328;SDS011;30039;51.462;6.892;2023-07-16T01:05:24;4.43;;;1.70;;
44328;SDS011;30039;51.462;6.892;2023-07-16T01:08:14;4.10;;;2.10;;
44328;SDS011;30039;51.462;6.892;2023-07-16T01:11:02;4.95;;;1.73;;
44328;SDS011;30039;51.462;6.892;2023-07-16T01:13:48;3.95;;;1.90;;
44328;SDS011;30039;51.462;6.892;2023-07-16T01:16:34;3.97;;;1.75;;
44328;SDS011;30039;51.462;6.892;2023-07-16T01:19:20;3.40;;;1.65;;
44328;SDS011;30039;51.462;6.892;2023-07-16T01:30:55;4.03;;;1.60;;
44328;SDS011;30039;51.462;6.892;2023-07-16T01:33:43;2.42;;;1.30;;
44328;SDS011;30039;51.462;6.892;2023-07-16T01:36:29;2.15;;;1.45;;
44328;SDS011;30039;51.462;6.892;2023-07-16T01:39:16;2.47;;;1.63;;
44328;SDS011;30039;51.462;6.892;2023-07-16T01:42:02;3.42;;;1.50;;
44328;SDS011;30039;51.462;6.892;2023-07-16T01:44:48;2.78;;;1.70;;
44328;SDS011;30039;51.462;6.892;2023-07-16T01:50:37;2.40;;;1.50;;
44328;SDS011;30039;51.462;6.892;2023-07-16T01:53:23;5.13;;;1.52;;
44328;SDS011;30039;51.462;6.892;2023-07-16T01:56:09;3.05;;;1.75;;
44328;SDS011;30039;51.462;6.892;2023-07-16T01:58:54;2.78;;;1.40;;
44328;SDS011;30039;51.462;6.892;2023-07-16T02:01:40;5.05;;;1.60;;
44328;SDS011;30039;51.462;6.892;2023-07-16T02:04:25;4.47;;;1.63;;
44328;SDS011;30039;51.462;6.892;2023-07-16T02:07:11;3.70;;;1.85;;
44328;SDS011;30039;51.462;6.892;2023-07-16T02:09:56;4.40;;;1.63;;
44328;SDS011;30039;51.462;6.892;2023-07-16T02:12:42;4.50;;;1.52;;
44328;SDS011;30039;51.462;6.892;2023-07-16T02:15:27;5.43;;;1.75;;
44328;SDS011;30039;51.462;6.892;2023-07-16T02:18:13;5.97;;;1.70;;
44328;SDS011;30039;51.462;6.892;2023-07-16T02:20:59;3.38;;;1.83;;
44328;SDS011;30039;51.462;6.892;2023-07-16T02:23:44;5.70;;;1.95;;
44328;SDS011;30039;51.462;6.892;2023-07-16T02:26:30;4.63;;;2.00;;
44328;SDS011;30039;51.462;6.892;2023-07-16T02:29:15;4.68;;;1.85;;
44328;SDS011;30039;51.462;6.892;2023-07-16T02:32:01;3.78;;;1.60;;
44328;SDS011;30039;51.462;6.892;2023-07-16T02:34:46;3.70;;;1.67;;
44328;SDS011;30039;51.462;6.892;2023-07-16T02:37:33;5.07;;;1.75;;
44328;SDS011;30039;51.462;6.892;2023-07-16T02:40:19;4.57;;;1.90;;
44328;SDS011;30039;51.462;6.892;2023-07-16T02:43:04;3.47;;;1.60;;
44328;SDS011;30039;51.462;6.892;2023-07-16T02:45:50;5.13;;;1.80;;
44328;SDS011;30039;51.462;6.892;2023-07-16T02:48:35;3.17;;;1.65;;
44328;SDS011;30039;51.462;6.892;2023-07-16T02:51:21;3.65;;;1.70;;
44328;SDS011;30039;51.462;6.892;2023-07-16T02:54:07;5.10;;;1.63;;
44328;SDS011;30039;51.462;6.892;2023-07-16T02:57:03;7.22;;;1.73;;
44328;SDS011;30039;51.462;6.892;2023-07-16T02:59:49;2.85;;;1.75;;
44328;SDS011;30039;51.462;6.892;2023-07-16T03:02:35;3.40;;;1.55;;
44328;SDS011;30039;51.462;6.892;2023-07-16T03:05:20;4.13;;;1.60;;
44328;SDS011;30039;51.462;6.892;2023-07-16T03:08:06;2.45;;;1.50;;
44328;SDS011;30039;51.462;6.892;2023-07-16T03:10:51;6.15;;;1.88;;
44328;SDS011;30039;51.462;6.892;2023-07-16T03:13:37;3.40;;;1.80;;
44328;SDS011;30039;51.462;6.892;2023-07-16T03:16:22;5.55;;;1.77;;
44328;SDS011;30039;51.462;6.892;2023-07-16T03:19:08;3.67;;;1.60;;
44328;SDS011;30039;51.462;6.892;2023-07-16T03:21:53;4.30;;;1.58;;
44328;SDS011;30039;51.462;6.892;2023-07-16T03:24:39;5.63;;;1.70;;
44328;SDS011;30039;51.462;6.892;2023-07-16T03:27:24;2.65;;;1.60;;
44328;SDS011;30039;51.462;6.892;2023-07-16T03:30:10;4.00;;;1.58;;
44328;SDS011;30039;51.462;6.892;2023-07-16T03:32:56;3.97;;;1.98;;
44328;SDS011;30039;51.462;6.892;2023-07-16T03:35:44;7.80;;;1.95;;
44328;SDS011;30039;51.462;6.892;2023-07-16T03:38:30;4.38;;;1.52;;
44328;SDS011;30039;51.462;6.892;2023-07-16T03:41:15;3.75;;;1.40;;
44328;SDS011;30039;51.462;6.892;2023-07-16T03:44:01;3.45;;;1.52;;
44328;SDS011;30039;51.462;6.892;2023-07-16T03:46:46;5.18;;;1.40;;
44328;SDS011;30039;51.462;6.892;2023-07-16T03:49:32;5.13;;;1.45;;
44328;SDS011;30039;51.462;6.892;2023-07-16T03:52:18;3.33;;;1.50;;
44328;SDS011;30039;51.462;6.892;2023-07-16T03:55:03;4.80;;;1.67;;
44328;SDS011;30039;51.462;6.892;2023-07-16T03:57:49;6.75;;;1.60;;
44328;SDS011;30039;51.462;6.892;2023-07-16T04:00:35;5.38;;;1.40;;
44328;SDS011;30039;51.462;6.892;2023-07-16T04:03:20;4.35;;;1.63;;
44328;SDS011;30039;51.462;6.892;2023-07-16T04:06:07;7.47;;;1.77;;
44328;SDS011;30039;51.462;6.892;2023-07-16T04:08:54;12.27;;;1.75;;
44328;SDS011;30039;51.462;6.892;2023-07-16T04:11:40;3.63;;;1.13;;
44328;SDS011;30039;51.462;6.892;2023-07-16T04:14:25;4.63;;;1.50;;
44328;SDS011;30039;51.462;6.892;2023-07-16T04:17:11;2.15;;;1.10;;
44328;SDS011;30039;51.462;6.892;2023-07-16T04:19:56;4.68;;;1.77;;
44328;SDS011;30039;51.462;6.892;2023-07-16T04:22:42;4.38;;;1.50;;
44328;SDS011;30039;51.462;6.892;2023-07-16T04:25:27;6.50;;;1.95;;
44328;SDS011;30039;51.462;6.892;2023-07-16T04:28:13;4.60;;;2.15;;
44328;SDS011;30039;51.462;6.892;2023-07-16T04:30:59;4.97;;;1.73;;
44328;SDS011;30039;51.462;6.892;2023-07-16T04:33:44;7.60;;;1.88;;
44328;SDS011;30039;51.462;6.892;2023-07-16T04:36:30;5.13;;;1.90;;
44328;SDS011;30039;51.462;6.892;2023-07-16T04:39:15;4.80;;;1.70;;
44328;SDS011;30039;51.462;6.892;2023-07-16T04:42:01;3.70;;;1.90;;
44328;SDS011;30039;51.462;6.892;2023-07-16T04:44:46;3.58;;;2.03;;
44328;SDS011;30039;51.462;6.892;2023-07-16T04:47:32;4.43;;;1.60;;
44328;SDS011;30039;51.462;6.892;2023-07-16T04:50:17;5.85;;;1.80;;
44328;SDS011;30039;51.462;6.892;2023-07-16T04:53:05;6.30;;;1.92;;
44328;SDS011;30039;51.462;6.892;2023-07-16T04:55:51;4.32;;;1.80;;
44328;SDS011;30039;51.462;6.892;2023-07-16T04:58:37;4.68;;;1.80;;
44328;SDS011;30039;51.462;6.892;2023-07-16T05:01:22;4.60;;;1.63;;
44328;SDS011;30039;51.462;6.892;2023-07-16T05:04:08;8.93;;;2.58;;
44328;SDS011;30039;51.462;6.892;2023-07-16T05:06:53;6.28;;;2.15;;
44328;SDS011;30039;51.462;6.892;2023-07-16T05:09:39;5.03;;;2.17;;
44328;SDS011;30039;51.462;6.892;2023-07-16T05:12:24;4.18;;;1.85;;
44328;SDS011;30039;51.462;6.892;2023-07-16T05:15:10;5.47;;;2.20;;
44328;SDS011;30039;51.462;6.892;2023-07-16T05:17:55;7.53;;;1.90;;
44328;SDS011;30039;51.462;6.892;2023-07-16T05:20:43;4.13;;;1.83;;
44328;SDS011;30039;51.462;6.892;2023-07-16T05:23:28;7.88;;;2.53;;
44328;SDS011;30039;51.462;6.892;2023-07-16T05:26:14;5.32;;;1.98;;
44328;SDS011;30039;51.462;6.892;2023-07-16T05:29:02;3.42;;;1.27;;
44328;SDS011;30039;51.462;6.892;2023-07-16T05:31:48;7.18;;;1.73;;
44328;SDS011;30039;51.462;6.892;2023-07-16T05:34:33;4.53;;;1.80;;
44328;SDS011;30039;51.462;6.892;2023-07-16T05:37:19;4.10;;;1.52;;
44328;SDS011;30039;51.462;6.892;2023-07-16T05:40:05;4.28;;;1.65;;
44328;SDS011;30039;51.462;6.892;2023-07-16T05:42:54;4.07;;;1.85;;
44328;SDS011;30039;51.462;6.892;2023-07-16T05:45:39;4.75;;;2.03;;
44328;SDS011;30039;51.462;6.892;2023-07-16T05:48:25;6.18;;;1.70;;
44328;SDS011;30039;51.462;6.892;2023-07-16T05:51:10;5.20;;;1.90;;
44328;SDS011;30039;51.462;6.892;2023-07-16T05:53:56;3.67;;;1.90;;
44328;SDS011;30039;51.462;6.892;2023-07-16T05:56:41;5.70;;;1.55;;
44328;SDS011;30039;51.462;6.892;2023-07-16T05:59:27;4.35;;;2.15;;
44328;SDS011;30039;51.462;6.892;2023-07-16T06:02:12;4.75;;;1.85;;
44328;SDS011;30039;51.462;6.892;2023-07-16T06:04:58;3.75;;;2.03;;
44328;SDS011;30039;51.462;6.892;2023-07-16T06:07:43;4.15;;;1.77;;
44328;SDS011;30039;51.462;6.892;2023-07-16T06:10:29;4.90;;;2.10;;
44328;SDS011;30039;51.462;6.892;2023-07-16T06:13:15;9.57;;;2.42;;
44328;SDS011;30039;51.462;6.892;2023-07-16T06:16:00;8.77;;;2.50;;
44328;SDS011;30039;51.462;6.892;2023-07-16T06:18:46;4.15;;;2.05;;
44328;SDS011;30039;51.462;6.892;2023-07-16T06:21:31;4.47;;;2.15;;
44328;SDS011;30039;51.462;6.892;2023-07-16T06:24:18;5.75;;;2.40;;
44328;SDS011;30039;51.462;6.892;2023-07-16T06:27:03;3.90;;;2.15;;
44328;SDS011;30039;51.462;6.892;2023-07-16T06:29:49;4.35;;;2.30;;
44328;SDS011;30039;51.462;6.892;2023-07-16T06:32:35;3.67;;;2.05;;
44328;SDS011;30039;51.462;6.892;2023-07-16T06:35:20;6.55;;;2.30;;
44328;SDS011;30039;51.462;6.892;2023-07-16T06:38:06;4.90;;;2.35;;
44328;SDS011;30039;51.462;6.892;2023-07-16T06:40:51;4.57;;;2.33;;
44328;SDS011;30039;51.462;6.892;2023-07-16T06:43:37;4.43;;;2.42;;
44328;SDS011;30039;51.462;6.892;2023-07-16T06:46:23;10.15;;;2.63;;
44328;SDS011;30039;51.462;6.892;2023-07-16T06:49:08;5.32;;;2.03;;
44328;SDS011;30039;51.462;6.892;2023-07-16T06:51:54;8.18;;;2.55;;
44328;SDS011;30039;51.462;6.892;2023-07-16T06:54:39;5.78;;;2.65;;
44328;SDS011;30039;51.462;6.892;2023-07-16T06:57:27;4.35;;;2.40;;
44328;SDS011;30039;51.462;6.892;2023-07-16T07:00:13;4.13;;;2.00;;
44328;SDS011;30039;51.462;6.892;2023-07-16T07:02:58;5.05;;;2.08;;
44328;SDS011;30039;51.462;6.892;2023-07-16T07:05:44;6.00;;;2.45;;
44328;SDS011;30039;51.462;6.892;2023-07-16T07:08:30;5.72;;;2.63;;
44328;SDS011;30039;51.462;6.892;2023-07-16T07:11:15;5.10;;;2.50;;
44328;SDS011;30039;51.462;6.892;2023-07-16T07:14:01;8.30;;;2.97;;
44328;SDS011;30039;51.462;6.892;2023-07-16T07:16:47;4.82;;;2.17;;
44328;SDS011;30039;51.462;6.892;2023-07-16T07:19:32;6.00;;;2.40;;
44328;SDS011;30039;51.462;6.892;2023-07-16T07:22:18;5.25;;;2.17;;
44328;SDS011;30039;51.462;6.892;2023-07-16T07:25:04;6.05;;;2.60;;
44328;SDS011;30039;51.462;6.892;2023-07-16T07:27:50;4.43;;;2.42;;
44328;SDS011;30039;51.462;6.892;2023-07-16T07:30:36;5.43;;;2.65;;
44328;SDS011;30039;51.462;6.892;2023-07-16T07:33:21;5.30;;;2.45;;
44328;SDS011;30039;51.462;6.892;2023-07-16T07:36:07;4.05;;;2.28;;
44328;SDS011;30039;51.462;6.892;2023-07-16T07:38:53;7.55;;;2.72;;
44328;SDS011;30039;51.462;6.892;2023-07-16T07:41:38;8.55;;;2.90;;
44328;SDS011;30039;51.462;6.892;2023-07-16T07:44:24;4.75;;;2.38;;
44328;SDS011;30039;51.462;6.892;2023-07-16T07:47:10;5.07;;;2.47;;
44328;SDS011;30039;51.462;6.892;2023-07-16T07:49:55;7.40;;;2.78;;
44328;SDS011;30039;51.462;6.892;2023-07-16T07:52:41;5.32;;;2.33;;
44328;SDS011;30039;51.462;6.892;2023-07-16T07:55:26;3.67;;;2.03;;
44328;SDS011;30039;51.462;6.892;2023-07-16T07:58:12;5.28;;;2.88;;
44328;SDS011;30039;51.462;6.892;2023-07-16T08:01:02;6.90;;;2.70;;
44328;SDS011;30039;51.462;6.892;2023-07-16T08:03:48;4.53;;;2.92;;
44328;SDS011;30039;51.462;6.892;2023-07-16T08:06:34;4.22;;;2.55;;
44328;SDS011;30039;51.462;6.892;2023-07-16T08:09:19;6.97;;;2.60;;
44328;SDS011;30039;51.462;6.892;2023-07-16T08:12:05;3.88;;;2.30;;
44328;SDS011;30039;51.462;6.892;2023-07-16T08:14:51;4.47;;;2.50;;
44328;SDS011;30039;51.462;6.892;2023-07-16T08:17:36;4.03;;;2.38;;
44328;SDS011;30039;51.462;6.892;2023-07-16T08:20:22;6.70;;;2.60;;
44328;SDS011;30039;51.462;6.892;2023-07-16T08:23:07;4.68;;;2.50;;
44328;SDS011;30039;51.462;6.892;2023-07-16T08:25:53;8.75;;;3.00;;
44328;SDS011;30039;51.462;6.892;2023-07-16T08:28:39;4.30;;;2.60;;
44328;SDS011;30039;51.462;6.892;2023-07-16T08:31:24;4.30;;;2.75;;
44328;SDS011;30039;51.462;6.892;2023-07-16T08:34:10;6.20;;;2.10;;
44328;SDS011;30039;51.462;6.892;2023-07-16T08:36:55;5.15;;;2.42;;
44328;SDS011;30039;51.462;6.892;2023-07-16T08:39:41;4.43;;;2.40;;
44328;SDS011;30039;51.462;6.892;2023-07-16T08:42:26;4.60;;;2.33;;
44328;SDS011;30039;51.462;6.892;2023-07-16T08:45:12;5.15;;;2.53;;
44328;SDS011;30039;51.462;6.892;2023-07-16T08:48:06;4.18;;;2.40;;
44328;SDS011;30039;51.462;6.892;2023-07-16T08:50:52;5.53;;;2.47;;
44328;SDS011;30039;51.462;6.892;2023-07-16T08:53:40;5.68;;;2.80;;
44328;SDS011;30039;51.462;6.892;2023-07-16T08:56:26;4.40;;;2.50;;
44328;SDS011;30039;51.462;6.892;2023-07-16T08:59:12;7.57;;;2.67;;
44328;SDS011;30039;51.462;6.892;2023-07-16T09:01:58;10.95;;;5.10;;
44328;SDS011;30039;51.462;6.892;2023-07-16T09:04:45;5.80;;;2.70;;
44328;SDS011;30039;51.462;6.892;2023-07-16T09:07:31;7.80;;;3.33;;
44328;SDS011;30039;51.462;6.892;2023-07-16T09:10:17;4.78;;;2.65;;
44328;SDS011;30039;51.462;6.892;2023-07-16T09:13:03;6.07;;;2.70;;
44328;SDS011;30039;51.462;6.892;2023-07-16T09:15:52;4.00;;;2.58;;
44328;SDS011;30039;51.462;6.892;2023-07-16T09:18:39;5.60;;;2.95;;
44328;SDS011;30039;51.462;6.892;2023-07-16T09:21:25;6.63;;;2.50;;
44328;SDS011;30039;51.462;6.892;2023-07-16T09:24:12;7.07;;;2.50;;
44328;SDS011;30039;51.462;6.892;2023-07-16T09:27:00;4.18;;;2.35;;
44328;SDS011;30039;51.462;6.892;2023-07-16T09:29:47;5.72;;;2.78;;
44328;SDS011;30039;51.462;6.892;2023-07-16T09:32:33;5.68;;;2.53;;
44328;SDS011;30039;51.462;6.892;2023-07-16T09:35:18;4.55;;;3.25;;
44328;SDS011;30039;51.462;6.892;2023-07-16T09:38:04;5.35;;;2.78;;
44328;SDS011;30039;51.462;6.892;2023-07-16T09:40:50;6.03;;;2.45;;
44328;SDS011;30039;51.462;6.892;2023-07-16T09:43:36;6.40;;;3.10;;
44328;SDS011;30039;51.462;6.892;2023-07-16T09:46:23;5.07;;;2.60;;
44328;SDS011;30039;51.462;6.892;2023-07-16T09:49:09;4.45;;;2.42;;
44328;SDS011;30039;51.462;6.892;2023-07-16T09:51:56;5.32;;;2.70;;
44328;SDS011;30039;51.462;6.892;2023-07-16T09:54:42;5.47;;;2.10;;
44328;SDS011;30039;51.462;6.892;2023-07-16T09:57:34;7.43;;;2.72;;
44328;SDS011;30039;51.462;6.892;2023-07-16T10:00:20;5.85;;;3.03;;
44328;SDS011;30039;51.462;6.892;2023-07-16T10:03:07;6.50;;;2.90;;
44328;SDS011;30039;51.462;6.892;2023-07-16T10:05:53;5.05;;;2.67;;
44328;SDS011;30039;51.462;6.892;2023-07-16T10:08:38;5.32;;;2.45;;
44328;SDS011;30039;51.462;6.892;2023-07-16T10:11:24;4.53;;;2.85;;
44328;SDS011;30039;51.462;6.892;2023-07-16T10:14:10;4.88;;;2.60;;
44328;SDS011;30039;51.462;6.892;2023-07-16T10:17:00;5.38;;;2.47;;
44328;SDS011;30039;51.462;6.892;2023-07-16T10:22:36;6.85;;;2.40;;
44328;SDS011;30039;51.462;6.892;2023-07-16T10:25:23;3.97;;;2.78;;
44328;SDS011;30039;51.462;6.892;2023-07-16T10:28:09;7.35;;;2.45;;
44328;SDS011;30039;51.462;6.892;2023-07-16T10:30:57;6.47;;;2.70;;
44328;SDS011;30039;51.462;6.892;2023-07-16T10:34:00;6.45;;;2.70;;
44328;SDS011;30039;51.462;6.892;2023-07-16T10:36:46;4.70;;;2.30;;
44328;SDS011;30039;51.462;6.892;2023-07-16T10:39:47;6.75;;;2.90;;
44328;SDS011;30039;51.462;6.892;2023-07-16T10:45:21;4.60;;;2.88;;
44328;SDS011;30039;51.462;6.892;2023-07-16T10:48:07;4.65;;;2.78;;
44328;SDS011;30039;51.462;6.892;2023-07-16T10:50:53;4.25;;;2.47;;
44328;SDS011;30039;51.462;6.892;2023-07-16T10:53:43;5.97;;;2.63;;
44328;SDS011;30039;51.462;6.892;2023-07-16T10:56:28;4.70;;;2.67;;
44328;SDS011;30039;51.462;6.892;2023-07-16T10:59:15;4.07;;;3.00;;
44328;SDS011;30039;51.462;6.892;2023-07-16T11:02:00;8.23;;;3.50;;
44328;SDS011;30039;51.462;6.892;2023-07-16T11:04:46;5.25;;;2.80;;
44328;SDS011;30039;51.462;6.892;2023-07-16T11:07:32;5.43;;;2.85;;
44328;SDS011;30039;51.462;6.892;2023-07-16T11:10:18;5.43;;;2.55;;
44328;SDS011;30039;51.462;6.892;2023-07-16T11:13:03;4.38;;;2.60;;
44328;SDS011;30039;51.462;6.892;2023-07-16T11:15:49;4.35;;;2.60;;
44328;SDS011;30039;51.462;6.892;2023-07-16T11:18:35;4.43;;;2.72;;
44328;SDS011;30039;51.462;6.892;2023-07-16T11:21:21;4.05;;;2.58;;
44328;SDS011;30039;51.462;6.892;2023-07-16T11:24:10;5.65;;;2.85;;
44328;SDS011;30039;51.462;6.892;2023-07-16T11:26:55;5.60;;;2.70;;
44328;SDS011;30039;51.462;6.892;2023-07-16T11:29:46;6.72;;;2.88;;
44328;SDS011;30039;51.462;6.892;2023-07-16T11:35:17;5.75;;;2.42;;
44328;SDS011;30039;51.462;6.892;2023-07-16T11:38:06;4.32;;;2.22;;
44328;SDS011;30039;51.462;6.892;2023-07-16T11:40:52;6.80;;;2.97;;
44328;SDS011;30039;51.462;6.892;2023-07-16T11:43:39;7.10;;;2.60;;
44328;SDS011;30039;51.462;6.892;2023-07-16T11:46:32;5.03;;;2.30;;
44328;SDS011;30039;51.462;6.892;2023-07-16T11:49:18;7.00;;;2.63;;
44328;SDS011;30039;51.462;6.892;2023-07-16T11:52:04;5.28;;;2.78;;
44328;SDS011;30039;51.462;6.892;2023-07-16T11:54:54;5.03;;;2.45;;
44328;SDS011;30039;51.462;6.892;2023-07-16T11:57:40;4.97;;;2.40;;
44328;SDS011;30039;51.462;6.892;2023-07-16T12:00:25;3.80;;;2.22;;
44328;SDS011;30039;51.462;6.892;2023-07-16T12:03:14;7.50;;;2.83;;
44328;SDS011;30039;51.462;6.892;2023-07-16T12:06:10;6.13;;;2.50;;
44328;SDS011;30039;51.462;6.892;2023-07-16T12:08:55;5.40;;;2.45;;
44328;SDS011;30039;51.462;6.892;2023-07-16T12:11:44;4.93;;;2.50;;
44328;SDS011;30039;51.462;6.892;2023-07-16T12:14:30;3.28;;;2.38;;
44328;SDS011;30039;51.462;6.892;2023-07-16T12:17:15;4.55;;;2.40;;
44328;SDS011;30039;51.462;6.892;2023-07-16T12:20:01;4.28;;;2.55;;
44328;SDS011;30039;51.462;6.892;2023-07-16T12:22:48;6.35;;;2.47;;
44328;SDS011;30039;51.462;6.892;2023-07-16T12:25:34;6.45;;;3.03;;
44328;SDS011;30039;51.462;6.892;2023-07-16T12:28:20;6.45;;;2.60;;
44328;SDS011;30039;51.462;6.892;2023-07-16T12:31:06;5.95;;;2.88;;
44328;SDS011;30039;51.462;6.892;2023-07-16T12:33:54;6.38;;;2.50;;
44328;SDS011;30039;51.462;6.892;2023-07-16T12:36:39;4.68;;;2.50;;
44328;SDS011;30039;51.462;6.892;2023-07-16T12:39:25;5.35;;;2.70;;
44328;SDS011;30039;51.462;6.892;2023-07-16T12:42:11;6.40;;;2.40;;
44328;SDS011;30039;51.462;6.892;2023-07-16T12:44:56;6.82;;;2.63;;
44328;SDS011;30039;51.462;6.892;2023-07-16T12:47:42;6.28;;;2.47;;
44328;SDS011;30039;51.462;6.892;2023-07-16T12:50:28;6.72;;;2.40;;
44328;SDS011;30039;51.462;6.892;2023-07-16T12:53:14;3.53;;;2.38;;
44328;SDS011;30039;51.462;6.892;2023-07-16T12:56:00;4.05;;;2.58;;
44328;SDS011;30039;51.462;6.892;2023-07-16T12:58:47;6.43;;;2.70;;
44328;SDS011;30039;51.462;6.892;2023-07-16T13:01:33;4.68;;;2.42;;
44328;SDS011;30039;51.462;6.892;2023-07-16T13:04:18;6.25;;;2.58;;
44328;SDS011;30039;51.462;6.892;2023-07-16T13:07:04;5.80;;;2.40;;
44328;SDS011;30039;51.462;6.892;2023-07-16T13:09:50;4.53;;;2.35;;
44328;SDS011;30039;51.462;6.892;2023-07-16T13:12:35;6.63;;;2.60;;
44328;SDS011;30039;51.462;6.892;2023-07-16T13:15:21;6.63;;;2.85;;
44328;SDS011;30039;51.462;6.892;2023-07-16T13:18:07;6.88;;;2.63;;
44328;SDS011;30039;51.462;6.892;2023-07-16T13:20:54;6.30;;;2.30;;
44328;SDS011;30039;51.462;6.892;2023-07-16T13:23:40;7.68;;;3.10;;
44328;SDS011;30039;51.462;6.892;2023-07-16T13:26:25;5.47;;;2.83;;
44328;SDS011;30039;51.462;6.892;2023-07-16T13:29:11;4.53;;;2.13;;
44328;SDS011;30039;51.462;6.892;2023-07-16T13:31:57;5.05;;;2.42;;
44328;SDS011;30039;51.462;6.892;2023-07-16T13:34:42;3.97;;;2.17;;
44328;SDS011;30039;51.462;6.892;2023-07-16T13:37:28;6.28;;;2.47;;
44328;SDS011;30039;51.462;6.892;2023-07-16T13:40:13;3.90;;;2.17;;
44328;SDS011;30039;51.462;6.892;2023-07-16T13:42:59;4.10;;;2.22;;
44328;SDS011;30039;51.462;6.892;2023-07-16T13:45:45;4.82;;;2.50;;
44328;SDS011;30039;51.462;6.892;2023-07-16T13:48:30;4.38;;;2.42;;
44328;SDS011;30039;51.462;6.892;2023-07-16T13:51:16;5.57;;;2.45;;
44328;SDS011;30039;51.462;6.892;2023-07-16T13:54:01;6.63;;;2.85;;
44328;SDS011;30039;51.462;6.892;2023-07-16T13:56:47;4.72;;;2.47;;
44328;SDS011;30039;51.462;6.892;2023-07-16T13:59:36;3.58;;;2.30;;
44328;SDS011;30039;51.462;6.892;2023-07-16T14:02:27;4.63;;;2.28;;
44328;SDS011;30039;51.462;6.892;2023-07-16T14:05:14;4.97;;;2.58;;
44328;SDS011;30039;51.462;6.892;2023-07-16T14:08:00;6.10;;;2.75;;
44328;SDS011;30039;51.462;6.892;2023-07-16T14:10:45;8.82;;;2.63;;
44328;SDS011;30039;51.462;6.892;2023-07-16T14:13:31;4.72;;;2.33;;
44328;SDS011;30039;51.462;6.892;2023-07-16T14:16:17;3.42;;;2.08;;
44328;SDS011;30039;51.462;6.892;2023-07-16T14:19:03;5.32;;;2.30;;
44328;SDS011;30039;51.462;6.892;2023-07-16T14:21:48;5.53;;;2.20;;
44328;SDS011;30039;51.462;6.892;2023-07-16T14:24:34;3.13;;;1.88;;
44328;SDS011;30039;51.462;6.892;2023-07-16T14:27:19;4.28;;;1.80;;
44328;SDS011;30039;51.462;6.892;2023-07-16T14:30:11;3.38;;;1.90;;
44328;SDS011;30039;51.462;6.892;2023-07-16T14:32:57;5.38;;;1.95;;
44328;SDS011;30039;51.462;6.892;2023-07-16T14:35:44;2.70;;;1.52;;
44328;SDS011;30039;51.462;6.892;2023-07-16T14:38:30;4.32;;;1.65;;
44328;SDS011;30039;51.462;6.892;2023-07-16T14:41:15;2.83;;;1.65;;
44328;SDS011;30039;51.462;6.892;2023-07-16T14:44:01;3.28;;;1.90;;
44328;SDS011;30039;51.462;6.892;2023-07-16T14:46:46;6.35;;;1.95;;
44328;SDS011;30039;51.462;6.892;2023-07-16T14:49:32;5.78;;;2.22;;
44328;SDS011;30039;51.462;6.892;2023-07-16T14:52:18;3.45;;;1.70;;
44328;SDS011;30039;51.462;6.892;2023-07-16T14:55:04;4.70;;;2.33;;
44328;SDS011;30039;51.462;6.892;2023-07-16T14:57:49;4.00;;;1.83;;
44328;SDS011;30039;51.462;6.892;2023-07-16T15:00:35;3.72;;;1.92;;
44328;SDS011;30039;51.462;6.892;2023-07-16T15:03:21;4.13;;;2.47;;
44328;SDS011;30039;51.462;6.892;2023-07-16T15:06:07;5.07;;;2.30;;
44328;SDS011;30039;51.462;6.892;2023-07-16T15:08:53;4.05;;;2.20;;
44328;SDS011;30039;51.462;6.892;2023-07-16T15:11:39;4.97;;;2.70;;
44328;SDS011;30039;51.462;6.892;2023-07-16T15:14:24;5.35;;;2.50;;
44328;SDS011;30039;51.462;6.892;2023-07-16T15:17:10;6.05;;;3.63;;
44328;SDS011;30039;51.462;6.892;2023-07-16T15:19:55;4.75;;;2.33;;
44328;SDS011;30039;51.462;6.892;2023-07-16T15:22:41;4.55;;;2.20;;
44328;SDS011;30039;51.462;6.892;2023-07-16T15:25:27;6.65;;;2.38;;
44328;SDS011;30039;51.462;6.892;2023-07-16T15:28:12;5.57;;;2.08;;
44328;SDS011;30039;51.462;6.892;2023-07-16T15:30:58;3.47;;;2.30;;
44328;SDS011;30039;51.462;6.892;2023-07-16T15:33:43;5.82;;;2.53;;
44328;SDS011;30039;51.462;6.892;2023-07-16T15:36:29;4.80;;;2.10;;
44328;SDS011;30039;51.462;6.892;2023-07-16T15:39:14;3.10;;;2.05;;
44328;SDS011;30039;51.462;6.892;2023-07-16T15:42:00;5.78;;;2.17;;
44328;SDS011;30039;51.462;6.892;2023-07-16T15:44:52;3.60;;;2.10;;
44328;SDS011;30039;51.462;6.892;2023-07-16T15:47:38;4.75;;;2.10;;
44328;SDS011;30039;51.462;6.892;2023-07-16T15:50:24;3.60;;;2.30;;
44328;SDS011;30039;51.462;6.892;2023-07-16T15:53:10;5.18;;;2.40;;
44328;SDS011;30039;51.462;6.892;2023-07-16T15:55:56;3.38;;;2.25;;
44328;SDS011;30039;51.462;6.892;2023-07-16T15:58:42;3.90;;;2.05;;
44328;SDS011;30039;51.462;6.892;2023-07-16T16:01:27;3.67;;;2.35;;
44328;SDS011;30039;51.462;6.892;2023-07-16T16:04:13;4.93;;;2.47;;
44328;SDS011;30039;51.462;6.892;2023-07-16T16:06:59;3.17;;;2.00;;
44328;SDS011;30039;51.462;6.892;2023-07-16T16:09:44;3.22;;;2.10;;
44328;SDS011;30039;51.462;6.892;2023-07-16T16:12:30;6.25;;;2.30;;
44328;SDS011;30039;51.462;6.892;2023-07-16T16:15:16;4.65;;;2.63;;
44328;SDS011;30039;51.462;6.892;2023-07-16T16:18:01;3.92;;;2.33;;
44328;SDS011;30039;51.462;6.892;2023-07-16T16:20:48;5.18;;;2.25;;
44328;SDS011;30039;51.462;6.892;2023-07-16T16:23:33;5.82;;;2.25;;
44328;SDS011;30039;51.462;6.892;2023-07-16T16:26:22;5.38;;;2.47;;
44328;SDS011;30039;51.462;6.892;2023-07-16T16:29:08;5.15;;;2.80;;
44328;SDS011;30039;51.462;6.892;2023-07-16T16:31:53;4.50;;;2.40;;
44328;SDS011;30039;51.462;6.892;2023-07-16T16:34:39;4.05;;;2.30;;
44328;SDS011;30039;51.462;6.892;2023-07-16T16:37:24;6.47;;;2.28;;
44328;SDS011;30039;51.462;6.892;2023-07-16T16:40:10;4.88;;;2.47;;
44328;SDS011;30039;51.462;6.892;2023-07-16T16:42:56;4.07;;;2.17;;
44328;SDS011;30039;51.462;6.892;2023-07-16T16:45:41;4.82;;;2.58;;
44328;SDS011;30039;51.462;6.892;2023-07-16T16:48:27;4.95;;;2.45;;
44328;SDS011;30039;51.462;6.892;2023-07-16T16:51:13;4.55;;;2.22;;
44328;SDS011;30039;51.462;6.892;2023-07-16T16:53:58;5.28;;;2.28;;
44328;SDS011;30039;51.462;6.892;2023-07-16T16:56:44;6.05;;;2.25;;
44328;SDS011;30039;51.462;6.892;2023-07-16T16:59:30;4.38;;;2.30;;
44328;SDS011;30039;51.462;6.892;2023-07-16T17:02:20;3.33;;;2.15;;